메인 페이지
METAR-TAF:

METAR-TAF

공항 :

파리 샤를 드 골 공항

파리찰스 드골, 프랑스

위도: 49-01N, 경도: 002-32E, 고도: 118m

현재 날씨관측

예보는 20분 전, 02:00시(UTC)에 발표되었습니다.
북북동3kt
온도 18°C
습도 83%
기압 1021 hPa
시정 10km 이상
1500m 미만 상공 구름 및 적란운 없음

METAR: LFPG 210200Z 02003KT CAVOK 18/15 Q1021 NOSIG

시각: 04:20 (02:20 UTC)

예보

예보는 3 시간 20분 전, 23:00시(UTC)에 발표되었습니다.
예보 대상 시간: 21일 00시부터 22일 06시까지 (UTC)
5kt
시정 10km 이상
1500m 미만 상공 구름 및 적란운 없음
확률 40% :
일시적
21일 05시부터 21일 09시까지 (UTC)
고도 400ft 상공 구름 많음
확률 30% :
일시적
21일 05시부터 21일 08시까지 (UTC)
고도 200ft 상공 구름 많음

TAF: LFPG 202300Z 2100/2206 01005KT CAVOK TX28/2116Z TN17/2104Z PROB40 TEMPO 2105/2109 BKN004 PROB30 TEMPO 2105/2108 BKN002

4,000개 이상의 공항 관측 자료 및 예보 (METAR 및 TAF 보고).

지도상에서 검색 가능한 기상관측소가 노란 점과 빨간 점으로 표시되어 있습니다.

기상관측소 명을 보려면 표시 위로 마우스를 이동하세요.

날씨 관측과 예보를 보려면 클릭하세요.

지도 변경 : 확대하려면 엑스 표시가 있는 녹색 버튼, 축소하려면 빼기 표시가 있는 녹색 버튼, 다음 페이지의 지도를 보려면 녹색 화살표를 클릭하세요.


METAR-TAF: